PHSO2: Bird Creek at SH 99 at Pawhuska, Ok

                                SHEF ID:       PHSO2     Bird Creek at SH 99
STATION TYPE:

PRECIP STAGE STAGE(2) RIV-FLOW VOLTAGE BAT-LOAD
in ft ft cfs volt volt
Ccp-Rev Ccp-Rev Ccp-Rev Ccp-Rev Ccp-Rev Ccp-Rev
(America/Chicago)
06/26 00:00 0.00 13.73 13.56 5549 12.95 ----
06/26 01:00 0.00 12.27 12.18 4290 12.92 ----
06/26 02:00 0.00 11.50 11.38 3612 12.90 ----
06/26 03:00 0.00 11.01 10.89 3178 12.86 ----
06/26 04:00 0.00 10.64 10.54 2852 12.83 ----
06/26 05:00 0.00 10.31 10.25 2561 12.81 ----
06/26 06:00 0.00 10.07 9.98 2349 12.80 ----
06/26 07:00 0.00 9.86 9.75 2164 12.85 ----
06/26 08:00 0.00 9.67 9.56 1999 13.17 ----
06/26 09:00 0.00 9.51 9.38 1859 13.80 ----
06/26 10:00 0.00 9.36 9.23 1728 13.92 ----
06/26 11:00 0.00 9.23 9.10 1615 13.40 ----
06/26 12:00 0.00 9.09 8.98 1494 13.38 ----
06/26 13:00 0.00 8.98 8.87 1401 13.27 ----
06/26 14:00 0.00 8.85 8.74 1298 13.27 ----
06/26 15:00 0.00 8.75 8.66 1223 13.21 ----
06/26 16:00 0.00 8.69 8.57 1179 13.20 ----
06/26 17:00 0.00 8.59 8.47 1107 13.24 ----
06/26 18:00 0.00 8.50 8.40 1046 13.30 ----
06/26 19:00 0.00 8.42 8.30 992 13.19 ----
06/26 20:00 0.00 8.34 8.21 941 13.01 ----
06/26 21:00 0.00 8.26 8.14 891 12.99 ----
06/26 22:00 0.00 8.19 8.08 848 12.98 ----
06/26 23:00 0.01 8.12 8.00 807 12.94 ----
Data processed at Sat 27Jun2026 04:53 GMT

NOTICE: If you are parsing this page

Please convert to using our Data API. Starting early 2026 we will be migrating to: https://water.usace.army.mil with modern pages rendered in JavaScript. When this migration completes you will no longer be able to scrape this page! CWMSDataAPI (CDA)

Timeseries IDs (TSIDs)

TSIDs used from left to right in the data table
PAWH.Precip-Inc.Total.1Hour.1Hour.Ccp-Rev
PAWH.Stage.Inst.1Hour.0.Ccp-Rev
PAWH.Stage-Alt.Inst.1Hour.0.Ccp-Rev
PAWH.Flow.Inst.1Hour.0.Ccp-Rev
PAWH.Volt-Battery.Inst.1Hour.0.Ccp-Rev
PAWH.Volt-Battery Load.Inst.1Hour.0.Ccp-Rev

                            

All information presented herein is the property of the government of the United States of America and may be revised or deleted at any time without prior notice. Dissemination of this information without the expressed written consent of the Public Affairs Office, Tulsa District U.S. Army Corps of Engineers is strictly prohibited. These data are gathered electronically and, as presented, have NOT undergone any form of quality control. These data are NOT guaranteed to be valid or correct.